Time;durP1;ratioP1;P1;durP2;ratioP2;P2;SDS_P1;SDS_P2;PMS_P1;PMS_P2;Temp;Humidity;BMP_temperature;BMP_pressure;BME280_temperature;BME280_humidity;BME280_pressure;Samples;Min_cycle;Max_cycle;Signal;HPM_P1;HPM_P2
2021/01/01 00:01:07;;;;;;;4.89;3.85;;;;;;;19.06;48.00;99217.90;;;;-60
2021/01/01 00:04:07;;;;;;;4.28;3.88;;;;;;;19.04;48.04;99213.80;;;;-61
2021/01/01 00:07:07;;;;;;;5.03;3.84;;;;;;;19.03;48.05;99212.83;;;;-59
2021/01/01 00:10:07;;;;;;;4.37;3.95;;;;;;;19.01;48.06;99216.58;;;;-60
2021/01/01 00:13:07;;;;;;;5.15;3.93;;;;;;;18.97;48.02;99212.58;;;;-59
2021/01/01 00:16:07;;;;;;;4.43;4.03;;;;;;;18.95;48.07;99215.69;;;;-54
2021/01/01 00:19:07;;;;;;;5.07;4.07;;;;;;;18.94;48.06;99217.47;;;;-59
2021/01/01 00:22:07;;;;;;;4.69;4.01;;;;;;;18.92;48.12;99216.67;;;;-58
2021/01/01 00:25:07;;;;;;;4.71;4.13;;;;;;;18.91;48.11;99219.41;;;;-61
2021/01/01 00:28:07;;;;;;;5.00;4.21;;;;;;;18.88;48.11;99217.05;;;;-61
2021/01/01 00:31:07;;;;;;;4.75;4.17;;;;;;;18.87;48.17;99218.30;;;;-61
2021/01/01 00:34:07;;;;;;;4.41;4.01;;;;;;;18.85;48.15;99220.27;;;;-61
2021/01/01 00:37:07;;;;;;;4.71;4.19;;;;;;;18.83;48.15;99218.27;;;;-61
2021/01/01 00:40:07;;;;;;;4.28;3.87;;;;;;;18.81;48.11;99213.41;;;;-61
2021/01/01 00:43:07;;;;;;;4.57;4.17;;;;;;;18.78;48.10;99212.62;;;;-54
2021/01/01 00:46:07;;;;;;;4.87;4.38;;;;;;;18.77;48.11;99210.25;;;;-59
2021/01/01 00:49:07;;;;;;;4.71;4.24;;;;;;;18.75;48.17;99210.68;;;;-59
2021/01/01 00:52:07;;;;;;;5.05;4.54;;;;;;;18.73;48.20;99209.17;;;;-59
2021/01/01 00:55:07;;;;;;;4.71;4.25;;;;;;;18.71;48.20;99211.69;;;;-59
2021/01/01 00:58:07;;;;;;;5.11;4.59;;;;;;;18.70;48.20;99211.96;;;;-59
2021/01/01 01:01:07;;;;;;;5.65;4.47;;;;;;;18.68;48.20;99214.73;;;;-59
2021/01/01 01:04:07;;;;;;;4.76;4.31;;;;;;;18.66;48.20;99218.25;;;;-54
2021/01/01 01:07:07;;;;;;;5.55;4.39;;;;;;;18.64;48.22;99223.06;;;;-54
2021/01/01 01:10:07;;;;;;;5.99;4.71;;;;;;;18.61;48.23;99220.95;;;;-54
2021/01/01 01:13:07;;;;;;;4.98;4.47;;;;;;;18.60;48.21;99226.67;;;;-54
2021/01/01 01:16:07;;;;;;;5.01;4.51;;;;;;;18.59;48.18;99230.41;;;;-54
2021/01/01 01:19:07;;;;;;;5.35;4.84;;;;;;;18.56;48.19;99231.48;;;;-54
2021/01/01 01:22:07;;;;;;;5.07;4.57;;;;;;;18.54;48.21;99235.88;;;;-54
2021/01/01 01:25:07;;;;;;;5.10;4.60;;;;;;;18.53;48.19;99237.75;;;;-54
2021/01/01 01:28:07;;;;;;;5.26;4.76;;;;;;;18.51;48.18;99236.55;;;;-54
2021/01/01 01:31:07;;;;;;;5.41;4.61;;;;;;;18.49;48.24;99239.99;;;;-54
2021/01/01 01:34:07;;;;;;;5.16;4.67;;;;;;;18.47;48.20;99235.80;;;;-54
2021/01/01 01:37:07;;;;;;;5.81;4.86;;;;;;;18.47;48.26;99239.50;;;;-62
2021/01/01 01:40:07;;;;;;;5.39;4.81;;;;;;;18.44;48.20;99243.52;;;;-62
2021/01/01 01:43:06;;;;;;;5.37;4.87;;;;;;;18.43;48.24;99240.84;;;;-62
2021/01/01 01:46:07;;;;;;;5.37;4.87;;;;;;;18.40;48.27;99242.73;;;;-62
2021/01/01 01:49:07;;;;;;;5.37;4.82;;;;;;;18.39;48.27;99250.30;;;;-62
2021/01/01 01:52:07;;;;;;;5.39;4.79;;;;;;;18.37;48.25;99259.88;;;;-62
2021/01/01 01:55:07;;;;;;;5.61;5.02;;;;;;;18.36;48.20;99264.35;;;;-60
2021/01/01 01:58:07;;;;;;;5.57;4.84;;;;;;;18.34;48.27;99262.41;;;;-54
2021/01/01 02:01:07;;;;;;;5.78;5.18;;;;;;;18.32;48.26;99259.11;;;;-54
2021/01/01 02:04:07;;;;;;;5.63;4.99;;;;;;;18.31;48.28;99266.11;;;;-55
2021/01/01 02:07:07;;;;;;;6.03;5.43;;;;;;;18.29;48.27;99274.06;;;;-54
2021/01/01 02:10:07;;;;;;;5.55;4.99;;;;;;;18.27;48.29;99275.61;;;;-54
2021/01/01 02:13:07;;;;;;;5.92;5.28;;;;;;;18.25;48.25;99280.81;;;;-54
2021/01/01 02:16:07;;;;;;;5.90;5.15;;;;;;;18.25;48.29;99285.45;;;;-55
2021/01/01 02:19:07;;;;;;;5.98;5.39;;;;;;;18.24;48.33;99287.14;;;;-54
2021/01/01 02:22:06;;;;;;;5.69;5.13;;;;;;;18.22;48.33;99289.35;;;;-59
2021/01/01 02:25:07;;;;;;;6.12;5.44;;;;;;;18.19;48.33;99287.19;;;;-59
2021/01/01 02:28:07;;;;;;;5.74;5.17;;;;;;;18.19;48.31;99293.02;;;;-58
2021/01/01 02:31:07;;;;;;;6.39;5.33;;;;;;;18.17;48.34;99292.87;;;;-54
2021/01/01 02:34:06;;;;;;;6.01;5.41;;;;;;;18.16;48.33;99297.19;;;;-54
2021/01/01 02:37:07;;;;;;;5.89;5.21;;;;;;;18.15;48.34;99295.56;;;;-54
2021/01/01 02:40:07;;;;;;;6.35;5.75;;;;;;;18.14;48.39;99294.54;;;;-54
2021/01/01 02:43:07;;;;;;;6.05;5.45;;;;;;;18.12;48.39;99299.24;;;;-54
2021/01/01 02:46:07;;;;;;;6.19;5.38;;;;;;;18.11;48.34;99300.06;;;;-61
2021/01/01 02:49:07;;;;;;;6.08;5.33;;;;;;;18.10;48.29;99298.13;;;;-62
2021/01/01 02:52:07;;;;;;;6.07;5.47;;;;;;;18.08;48.27;99303.97;;;;-60
2021/01/01 02:55:07;;;;;;;6.10;5.50;;;;;;;18.06;48.33;99304.79;;;;-59
2021/01/01 02:58:07;;;;;;;5.79;5.19;;;;;;;18.05;48.31;99304.06;;;;-58
2021/01/01 03:01:06;;;;;;;6.11;5.51;;;;;;;18.04;48.35;99307.66;;;;-59
2021/01/01 03:04:07;;;;;;;6.11;5.51;;;;;;;18.02;48.37;99308.22;;;;-58
2021/01/01 03:07:07;;;;;;;6.07;5.47;;;;;;;18.01;48.38;99308.30;;;;-54
2021/01/01 03:10:07;;;;;;;6.39;5.53;;;;;;;18.00;48.35;99305.97;;;;-54
2021/01/01 03:13:07;;;;;;;5.99;5.40;;;;;;;17.98;48.31;99306.95;;;;-60
2021/01/01 03:16:07;;;;;;;6.09;5.49;;;;;;;17.97;48.30;99309.45;;;;-54
2021/01/01 03:19:07;;;;;;;6.36;5.61;;;;;;;17.96;48.41;99307.84;;;;-55
2021/01/01 03:22:07;;;;;;;6.08;5.48;;;;;;;17.95;48.34;99307.61;;;;-62
2021/01/01 03:25:06;;;;;;;5.94;5.31;;;;;;;17.93;48.38;99309.01;;;;-61
2021/01/01 03:28:07;;;;;;;5.94;5.34;;;;;;;17.92;48.41;99312.16;;;;-61
2021/01/01 03:31:07;;;;;;;6.01;5.41;;;;;;;17.91;48.38;99307.56;;;;-61
2021/01/01 03:34:07;;;;;;;5.43;4.93;;;;;;;17.90;48.42;99313.23;;;;-59
2021/01/01 03:37:06;;;;;;;6.17;5.57;;;;;;;17.88;48.41;99312.34;;;;-58
2021/01/01 03:40:07;;;;;;;5.88;5.29;;;;;;;17.88;48.44;99315.03;;;;-60
2021/01/01 03:43:07;;;;;;;6.17;5.53;;;;;;;17.87;48.43;99314.08;;;;-62
2021/01/01 03:46:07;;;;;;;5.97;5.37;;;;;;;17.86;48.38;99318.61;;;;-62
2021/01/01 03:49:06;;;;;;;6.02;5.42;;;;;;;17.85;48.40;99318.53;;;;-63
2021/01/01 03:52:07;;;;;;;5.65;5.08;;;;;;;17.84;48.43;99317.06;;;;-63
2021/01/01 03:55:07;;;;;;;5.65;5.12;;;;;;;17.84;48.43;99318.38;;;;-62
2021/01/01 03:58:07;;;;;;;5.85;5.25;;;;;;;17.82;48.40;99320.20;;;;-62
2021/01/01 04:01:07;;;;;;;6.03;5.21;;;;;;;17.82;48.41;99320.61;;;;-61
2021/01/01 04:04:07;;;;;;;5.60;5.09;;;;;;;17.81;48.44;99319.58;;;;-62
2021/01/01 04:07:07;;;;;;;6.41;5.07;;;;;;;17.78;48.45;99316.03;;;;-62
2021/01/01 04:10:07;;;;;;;5.50;4.98;;;;;;;17.77;48.42;99311.89;;;;-62
2021/01/01 04:13:07;;;;;;;5.32;4.82;;;;;;;17.76;48.48;99313.67;;;;-54
2021/01/01 04:16:06;;;;;;;5.43;4.90;;;;;;;17.75;48.44;99311.99;;;;-54
2021/01/01 04:19:07;;;;;;;5.47;4.97;;;;;;;17.74;48.41;99312.55;;;;-62
2021/01/01 04:22:07;;;;;;;5.50;4.97;;;;;;;17.73;48.33;99315.81;;;;-61
2021/01/01 04:25:07;;;;;;;5.34;4.83;;;;;;;17.71;48.48;99315.09;;;;-57
2021/01/01 04:28:06;;;;;;;5.43;4.93;;;;;;;17.70;48.44;99318.34;;;;-62
2021/01/01 04:31:07;;;;;;;5.38;4.88;;;;;;;17.69;48.35;99323.36;;;;-54
2021/01/01 04:34:07;;;;;;;5.27;4.77;;;;;;;17.67;48.47;99324.73;;;;-54
2021/01/01 04:37:07;;;;;;;5.43;4.93;;;;;;;17.67;48.47;99326.45;;;;-54
2021/01/01 04:40:06;;;;;;;4.96;4.47;;;;;;;17.65;48.45;99330.34;;;;-54
2021/01/01 04:43:06;;;;;;;5.14;4.68;;;;;;;17.65;48.47;99328.56;;;;-54
2021/01/01 04:46:07;;;;;;;5.18;4.68;;;;;;;17.65;48.36;99334.40;;;;-54
2021/01/01 04:49:07;;;;;;;5.21;4.71;;;;;;;17.64;48.45;99336.98;;;;-60
2021/01/01 04:52:07;;;;;;;5.02;4.53;;;;;;;17.62;48.45;99340.09;;;;-59
2021/01/01 04:55:07;;;;;;;5.51;4.65;;;;;;;17.61;48.43;99345.02;;;;-59
2021/01/01 04:58:07;;;;;;;5.18;4.68;;;;;;;17.61;48.49;99347.94;;;;-60
2021/01/01 05:01:07;;;;;;;5.03;4.53;;;;;;;17.60;48.46;99351.58;;;;-60
2021/01/01 05:04:06;;;;;;;5.13;4.63;;;;;;;17.58;48.41;99350.80;;;;-59
2021/01/01 05:07:06;;;;;;;4.66;4.26;;;;;;;17.57;48.44;99352.66;;;;-59
2021/01/01 05:10:07;;;;;;;4.64;4.21;;;;;;;17.57;48.44;99354.84;;;;-62
2021/01/01 05:13:07;;;;;;;4.86;4.38;;;;;;;17.56;48.42;99357.61;;;;-54
2021/01/01 05:16:07;;;;;;;4.83;4.27;;;;;;;17.55;48.41;99355.25;;;;-62
2021/01/01 05:19:06;;;;;;;4.92;4.45;;;;;;;17.55;48.48;99358.98;;;;-62
2021/01/01 05:22:07;;;;;;;4.95;4.45;;;;;;;17.54;48.45;99357.94;;;;-54
2021/01/01 05:25:07;;;;;;;4.81;4.40;;;;;;;17.53;48.39;99356.30;;;;-54
2021/01/01 05:28:07;;;;;;;5.05;4.55;;;;;;;17.51;48.53;99356.23;;;;-62
2021/01/01 05:31:06;;;;;;;4.55;4.15;;;;;;;17.51;48.43;99361.49;;;;-63
2021/01/01 05:34:06;;;;;;;4.53;4.10;;;;;;;17.50;48.46;99370.59;;;;-54
2021/01/01 05:37:06;;;;;;;4.70;4.26;;;;;;;17.50;48.40;99376.34;;;;-53
2021/01/01 05:40:07;;;;;;;4.80;4.35;;;;;;;17.48;48.43;99377.39;;;;-59
2021/01/01 05:43:07;;;;;;;4.26;3.86;;;;;;;17.46;48.55;99379.42;;;;-54
2021/01/01 05:46:07;;;;;;;4.75;4.25;;;;;;;17.46;48.48;99385.02;;;;-62
2021/01/01 05:49:08;;;;;;;4.60;4.20;;;;;;;17.45;48.48;99389.39;;;;-54
2021/01/01 05:52:07;;;;;;;4.52;4.12;;;;;;;17.44;48.42;99388.97;;;;-54
2021/01/01 05:55:07;;;;;;;4.49;4.09;;;;;;;17.43;48.39;99390.05;;;;-60
2021/01/01 05:58:06;;;;;;;4.76;4.31;;;;;;;17.42;48.45;99393.52;;;;-60
2021/01/01 06:01:07;;;;;;;4.43;4.03;;;;;;;17.43;48.47;99397.48;;;;-54
2021/01/01 06:04:07;;;;;;;4.28;3.88;;;;;;;17.42;48.52;99403.97;;;;-54
2021/01/01 06:07:07;;;;;;;4.16;3.76;;;;;;;17.40;48.53;99403.56;;;;-54
2021/01/01 06:10:06;;;;;;;4.36;3.96;;;;;;;17.39;48.49;99406.00;;;;-54
2021/01/01 06:13:07;;;;;;;4.55;3.92;;;;;;;17.38;48.51;99408.50;;;;-50
2021/01/01 06:16:09;;;;;;;4.29;3.81;;;;;;;17.38;48.71;99413.36;;;;-50
2021/01/01 06:19:07;;;;;;;4.39;3.99;;;;;;;17.40;48.64;99418.95;;;;-51
2021/01/01 06:22:06;;;;;;;4.25;3.85;;;;;;;17.43;48.45;99424.20;;;;-52
2021/01/01 06:25:06;;;;;;;4.33;3.93;;;;;;;17.45;48.50;99429.70;;;;-51
2021/01/01 06:28:07;;;;;;;4.37;3.72;;;;;;;17.48;48.40;99432.62;;;;-51
2021/01/01 06:31:07;;;;;;;4.06;3.66;;;;;;;17.52;48.40;99438.30;;;;-54
2021/01/01 06:34:06;;;;;;;3.98;3.59;;;;;;;17.56;48.48;99438.77;;;;-51
2021/01/01 06:37:07;;;;;;;4.29;3.89;;;;;;;17.59;48.29;99442.08;;;;-54
2021/01/01 06:40:07;;;;;;;3.69;3.39;;;;;;;17.63;48.16;99444.42;;;;-55
2021/01/01 06:43:07;;;;;;;3.86;3.47;;;;;;;17.67;48.17;99446.67;;;;-56
2021/01/01 06:46:06;;;;;;;4.72;3.72;;;;;;;17.71;48.14;99445.84;;;;-56
2021/01/01 06:49:07;;;;;;;3.65;3.35;;;;;;;17.75;47.78;99444.80;;;;-50
2021/01/01 06:52:07;;;;;;;3.44;3.14;;;;;;;17.79;47.91;99450.61;;;;-51
2021/01/01 06:55:07;;;;;;;3.62;3.31;;;;;;;17.83;47.80;99452.09;;;;-51
2021/01/01 06:58:06;;;;;;;5.19;3.29;;;;;;;17.88;47.63;99454.66;;;;-54
2021/01/01 07:01:06;;;;;;;4.00;3.49;;;;;;;17.93;47.88;99453.19;;;;-56
2021/01/01 07:04:07;;;;;;;4.06;3.10;;;;;;;17.97;48.00;99457.22;;;;-56
2021/01/01 07:07:07;;;;;;;5.62;2.92;;;;;;;17.99;48.05;99460.13;;;;-55
2021/01/01 07:10:07;;;;;;;4.55;3.20;;;;;;;18.02;48.12;99459.89;;;;-55
2021/01/01 07:13:06;;;;;;;4.59;2.90;;;;;;;18.04;48.20;99462.48;;;;-54
2021/01/01 07:16:07;;;;;;;5.51;3.07;;;;;;;18.06;48.18;99468.22;;;;-55
2021/01/01 07:19:07;;;;;;;3.05;2.76;;;;;;;18.08;48.17;99467.88;;;;-55
2021/01/01 07:22:07;;;;;;;3.34;3.03;;;;;;;18.10;48.15;99472.43;;;;-53
2021/01/01 07:25:06;;;;;;;5.13;2.80;;;;;;;18.10;48.22;99488.16;;;;-54
2021/01/01 07:28:07;;;;;;;3.31;2.91;;;;;;;18.10;48.16;99489.37;;;;-56
2021/01/01 07:31:07;;;;;;;3.37;3.00;;;;;;;18.12;48.14;99497.55;;;;-53
2021/01/01 07:34:07;;;;;;;3.21;2.80;;;;;;;18.13;48.08;99496.23;;;;-55
2021/01/01 07:37:06;;;;;;;3.23;2.93;;;;;;;18.13;48.12;99497.45;;;;-54
2021/01/01 07:40:06;;;;;;;3.41;2.98;;;;;;;18.14;48.14;99498.37;;;;-54
2021/01/01 07:43:06;;;;;;;3.89;2.82;;;;;;;18.13;48.08;99499.23;;;;-54
2021/01/01 07:46:07;;;;;;;3.41;2.81;;;;;;;18.14;47.99;99500.30;;;;-55
2021/01/01 07:49:06;;;;;;;3.23;2.63;;;;;;;18.14;48.06;99507.77;;;;-55
2021/01/01 07:52:06;;;;;;;2.88;2.63;;;;;;;18.15;47.99;99509.53;;;;-54
2021/01/01 07:55:07;;;;;;;3.45;2.87;;;;;;;18.14;48.01;99514.48;;;;-55
2021/01/01 07:58:07;;;;;;;3.27;2.61;;;;;;;18.14;48.00;99517.49;;;;-57
2021/01/01 08:01:07;;;;;;;3.49;2.68;;;;;;;18.14;47.99;99515.07;;;;-53
2021/01/01 08:04:06;;;;;;;3.02;2.72;;;;;;;18.14;47.99;99518.06;;;;-55
2021/01/01 08:07:06;;;;;;;2.86;2.59;;;;;;;18.13;47.96;99515.55;;;;-53
2021/01/01 08:10:07;;;;;;;3.51;2.63;;;;;;;18.13;47.98;99517.23;;;;-54
2021/01/01 08:13:07;;;;;;;3.19;2.50;;;;;;;18.13;48.08;99516.20;;;;-47
2021/01/01 08:16:06;;;;;;;3.14;2.47;;;;;;;18.14;48.13;99513.28;;;;-55
2021/01/01 08:19:06;;;;;;;3.65;2.40;;;;;;;18.13;47.99;99516.59;;;;-53
2021/01/01 08:22:07;;;;;;;4.11;2.52;;;;;;;18.13;48.01;99524.54;;;;-56
2021/01/01 08:25:07;;;;;;;2.61;2.41;;;;;;;18.11;47.95;99529.73;;;;-57
2021/01/01 08:28:06;;;;;;;2.96;2.53;;;;;;;18.10;47.95;99538.83;;;;-56
2021/01/01 08:31:06;;;;;;;3.08;2.61;;;;;;;18.10;47.95;99536.73;;;;-57
2021/01/01 08:34:06;;;;;;;2.73;2.43;;;;;;;18.09;47.92;99540.44;;;;-52
2021/01/01 08:37:07;;;;;;;2.53;2.33;;;;;;;18.08;47.95;99547.98;;;;-52
2021/01/01 08:40:06;;;;;;;3.05;2.42;;;;;;;18.07;47.94;99547.36;;;;-51
2021/01/01 08:43:06;;;;;;;4.23;2.59;;;;;;;18.07;47.93;99549.44;;;;-53
2021/01/01 08:46:06;;;;;;;2.43;2.23;;;;;;;18.06;47.96;99554.48;;;;-54
2021/01/01 08:49:07;;;;;;;2.89;2.35;;;;;;;18.06;47.95;99558.86;;;;-53
2021/01/01 08:52:06;;;;;;;2.41;2.21;;;;;;;18.06;47.91;99559.59;;;;-55
2021/01/01 08:55:06;;;;;;;2.42;2.22;;;;;;;18.05;47.95;99569.09;;;;-52
2021/01/01 08:58:07;;;;;;;3.37;2.42;;;;;;;18.06;47.90;99573.06;;;;-56
2021/01/01 09:01:07;;;;;;;2.78;2.23;;;;;;;18.05;47.88;99572.71;;;;-54
2021/01/01 09:04:06;;;;;;;2.30;2.10;;;;;;;18.05;47.89;99576.36;;;;-55
2021/01/01 09:07:06;;;;;;;2.43;2.23;;;;;;;18.05;47.75;99581.55;;;;-55
2021/01/01 09:10:06;;;;;;;3.35;2.23;;;;;;;18.05;47.88;99584.63;;;;-54
2021/01/01 09:13:07;;;;;;;2.46;2.19;;;;;;;18.05;47.88;99587.95;;;;-53
2021/01/01 09:16:08;;;;;;;2.49;2.23;;;;;;;18.06;47.86;99590.24;;;;-56
2021/01/01 09:19:06;;;;;;;2.44;2.22;;;;;;;18.05;47.87;99591.79;;;;-57
2021/01/01 09:22:06;;;;;;;2.58;2.20;;;;;;;18.06;47.81;99593.56;;;;-56
2021/01/01 09:25:07;;;;;;;2.43;2.23;;;;;;;18.05;47.79;99591.79;;;;-57
2021/01/01 09:28:06;;;;;;;2.43;2.23;;;;;;;18.06;47.82;99594.13;;;;-53
2021/01/01 09:31:06;;;;;;;2.19;1.99;;;;;;;18.05;47.80;99594.87;;;;-54
2021/01/01 09:34:06;;;;;;;2.39;2.19;;;;;;;18.06;47.84;99597.94;;;;-53
2021/01/01 09:37:07;;;;;;;2.74;2.15;;;;;;;18.07;47.82;99601.49;;;;-53
2021/01/01 09:40:07;;;;;;;2.20;2.00;;;;;;;18.07;47.78;99606.03;;;;-53
2021/01/01 09:43:06;;;;;;;2.20;2.00;;;;;;;18.06;47.80;99604.34;;;;-54
2021/01/01 09:46:06;;;;;;;2.22;2.02;;;;;;;18.06;47.90;99607.02;;;;-57
2021/01/01 09:49:07;;;;;;;2.30;2.10;;;;;;;18.06;47.89;99611.72;;;;-56
2021/01/01 09:52:06;;;;;;;2.27;2.06;;;;;;;18.06;47.89;99607.83;;;;-56
2021/01/01 09:55:06;;;;;;;2.17;1.98;;;;;;;18.06;47.80;99611.88;;;;-57
2021/01/01 09:58:06;;;;;;;2.21;2.01;;;;;;;18.06;47.83;99611.00;;;;-56
2021/01/01 10:01:06;;;;;;;2.39;2.19;;;;;;;18.06;48.10;99610.74;;;;-53
2021/01/01 10:04:07;;;;;;;2.31;2.03;;;;;;;18.07;48.33;99613.52;;;;-59
2021/01/01 10:07:06;;;;;;;2.27;2.00;;;;;;;18.10;48.66;99616.43;;;;-47
2021/01/01 10:10:06;;;;;;;4.37;2.03;;;;;;;18.13;48.78;99619.00;;;;-56
2021/01/01 10:13:06;;;;;;;2.39;1.97;;;;;;;18.14;48.63;99616.83;;;;-56
2021/01/01 10:16:06;;;;;;;2.32;2.12;;;;;;;18.15;48.60;99620.30;;;;-51
2021/01/01 10:19:07;;;;;;;3.46;2.01;;;;;;;18.16;48.68;99615.60;;;;-49
2021/01/01 10:22:06;;;;;;;3.99;1.91;;;;;;;18.16;48.74;99615.73;;;;-49
2021/01/01 10:25:06;;;;;;;2.78;1.97;;;;;;;18.17;48.88;99621.34;;;;-51
2021/01/01 10:28:06;;;;;;;2.78;1.79;;;;;;;18.17;48.97;99620.61;;;;-54
2021/01/01 10:31:06;;;;;;;2.09;1.85;;;;;;;18.19;48.92;99619.97;;;;-50
2021/01/01 10:34:06;;;;;;;3.95;1.90;;;;;;;18.21;49.02;99619.40;;;;-50
2021/01/01 10:37:06;;;;;;;1.99;1.79;;;;;;;18.24;49.22;99620.53;;;;-49
2021/01/01 10:40:06;;;;;;;2.01;1.81;;;;;;;18.27;49.27;99623.03;;;;-54
2021/01/01 10:46:06;;;;;;;2.09;1.89;;;;;;;18.36;49.20;99621.32;;;;-54
2021/01/01 10:49:06;;;;;;;2.87;1.81;;;;;;;18.43;49.34;99621.27;;;;-60
2021/01/01 10:52:07;;;;;;;2.13;1.85;;;;;;;18.48;49.19;99621.19;;;;-57
2021/01/01 10:55:07;;;;;;;1.90;1.79;;;;;;;18.51;49.16;99617.69;;;;-54
2021/01/01 10:58:06;;;;;;;2.24;1.90;;;;;;;18.56;49.26;99613.63;;;;-51
2021/01/01 11:01:06;;;;;;;2.09;1.90;;;;;;;18.60;49.19;99612.63;;;;-53
2021/01/01 11:04:06;;;;;;;1.97;1.80;;;;;;;18.66;49.24;99608.07;;;;-52
2021/01/01 11:07:06;;;;;;;2.80;1.83;;;;;;;18.70;49.54;99614.06;;;;-51
2021/01/01 11:10:06;;;;;;;4.85;1.99;;;;;;;18.73;49.19;99613.22;;;;-51
2021/01/01 11:13:07;;;;;;;5.15;1.82;;;;;;;18.78;49.22;99614.90;;;;-53
2021/01/01 12:19:51;;;;;;;2.55;1.80;;;;;;;19.26;48.04;99590.81;;;;-52
2021/01/01 12:22:12;;;;;;;1.90;1.80;;;;;;;19.28;48.06;99586.47;;;;-50
2021/01/01 12:25:07;;;;;;;1.61;1.51;;;;;;;19.29;47.93;99584.70;;;;-51
2021/01/01 12:28:06;;;;;;;2.15;1.61;;;;;;;19.30;47.89;99583.53;;;;-57
2021/01/01 12:31:06;;;;;;;1.66;1.56;;;;;;;19.29;47.85;99580.78;;;;-52
2021/01/01 12:34:06;;;;;;;1.75;1.65;;;;;;;19.31;47.88;99584.34;;;;-52
2021/01/01 12:37:06;;;;;;;1.75;1.60;;;;;;;19.32;47.75;99580.84;;;;-51
2021/01/01 12:40:06;;;;;;;1.60;1.50;;;;;;;19.34;47.73;99587.84;;;;-51
2021/01/01 12:43:06;;;;;;;1.81;1.62;;;;;;;19.35;47.71;99585.47;;;;-57
2021/01/01 12:46:07;;;;;;;2.45;1.55;;;;;;;19.37;47.68;99590.33;;;;-57
2021/01/01 12:49:06;;;;;;;1.55;1.45;;;;;;;19.37;47.62;99591.29;;;;-57
2021/01/01 12:52:06;;;;;;;1.85;1.51;;;;;;;19.39;47.58;99591.05;;;;-57
2021/01/01 12:55:06;;;;;;;1.70;1.60;;;;;;;19.39;47.58;99594.29;;;;-57
2021/01/01 12:58:06;;;;;;;1.83;1.67;;;;;;;19.43;47.52;99594.19;;;;-51
2021/01/01 13:01:06;;;;;;;1.57;1.47;;;;;;;19.42;47.46;99600.02;;;;-52
2021/01/01 13:04:06;;;;;;;2.19;1.60;;;;;;;19.41;47.50;99599.31;;;;-57
2021/01/01 13:07:06;;;;;;;1.68;1.58;;;;;;;19.42;47.44;99603.55;;;;-57
2021/01/01 13:10:07;;;;;;;2.43;1.69;;;;;;;19.42;47.43;99600.84;;;;-51
2021/01/01 13:13:06;;;;;;;2.29;1.55;;;;;;;19.43;47.33;99605.88;;;;-60
2021/01/01 13:16:06;;;;;;;1.71;1.50;;;;;;;19.43;47.32;99607.51;;;;-60
2021/01/01 13:19:06;;;;;;;1.70;1.60;;;;;;;19.43;47.29;99607.76;;;;-51
2021/01/01 13:22:06;;;;;;;1.71;1.59;;;;;;;19.43;47.24;99607.43;;;;-51
2021/01/01 13:25:06;;;;;;;1.60;1.50;;;;;;;19.43;47.22;99611.97;;;;-60
2021/01/01 13:28:06;;;;;;;1.65;1.54;;;;;;;19.42;47.19;99611.00;;;;-52
2021/01/01 13:31:06;;;;;;;1.81;1.65;;;;;;;19.41;47.18;99613.28;;;;-51
2021/01/01 13:34:06;;;;;;;1.97;1.70;;;;;;;19.41;47.15;99616.47;;;;-57
2021/01/01 13:37:06;;;;;;;1.79;1.49;;;;;;;19.41;47.18;99622.30;;;;-52
2021/01/01 13:40:06;;;;;;;1.78;1.63;;;;;;;19.42;47.12;99624.57;;;;-50
2021/01/01 13:43:06;;;;;;;1.57;1.47;;;;;;;19.41;47.09;99628.50;;;;-51
2021/01/01 13:46:07;;;;;;;1.60;1.50;;;;;;;19.42;47.08;99628.31;;;;-50
2021/01/01 13:49:06;;;;;;;1.71;1.50;;;;;;;19.42;47.13;99631.47;;;;-52
2021/01/01 13:52:06;;;;;;;2.88;1.47;;;;;;;19.47;47.34;99634.38;;;;-51
2021/01/01 13:55:06;;;;;;;1.89;1.55;;;;;;;19.50;47.81;99633.37;;;;-46
2021/01/01 13:58:06;;;;;;;2.48;1.54;;;;;;;19.54;47.71;99634.81;;;;-51
2021/01/01 14:01:06;;;;;;;1.71;1.59;;;;;;;19.55;47.83;99631.40;;;;-52
2021/01/01 14:04:06;;;;;;;1.61;1.51;;;;;;;19.58;47.83;99632.82;;;;-52
2021/01/01 14:07:06;;;;;;;1.91;1.60;;;;;;;19.61;48.02;99634.20;;;;-50
2021/01/01 14:10:06;;;;;;;5.66;1.42;;;;;;;19.63;47.83;99637.17;;;;-50
2021/01/01 14:13:06;;;;;;;2.55;1.60;;;;;;;19.63;47.89;99638.47;;;;-51
2021/01/01 14:16:06;;;;;;;4.42;2.41;;;;;;;19.67;48.33;99641.38;;;;-51
2021/01/01 14:19:06;;;;;;;1.63;1.53;;;;;;;19.69;48.41;99642.81;;;;-58
2021/01/01 14:22:06;;;;;;;1.75;1.65;;;;;;;19.75;48.83;99643.03;;;;-51
2021/01/01 14:25:06;;;;;;;1.92;1.53;;;;;;;19.73;48.50;99650.47;;;;-51
2021/01/01 14:28:08;;;;;;;3.10;2.12;;;;;;;19.70;48.00;99647.05;;;;-56
2021/01/01 14:31:06;;;;;;;2.96;1.74;;;;;;;19.74;48.11;99652.09;;;;-53
2021/01/01 14:34:06;;;;;;;3.24;1.80;;;;;;;19.77;48.08;99654.58;;;;-53
2021/01/01 14:37:06;;;;;;;1.94;1.71;;;;;;;19.73;47.98;99654.20;;;;-51
2021/01/01 14:40:06;;;;;;;2.30;1.86;;;;;;;19.70;47.28;99654.20;;;;-58
2021/01/01 14:43:06;;;;;;;2.11;1.80;;;;;;;19.72;47.36;99658.62;;;;-57
2021/01/01 14:46:06;;;;;;;2.49;1.75;;;;;;;19.75;47.36;99665.23;;;;-51
2021/01/01 14:49:08;;;;;;;2.90;1.87;;;;;;;19.79;47.50;99660.83;;;;-48
2021/01/01 14:52:07;;;;;;;2.31;1.66;;;;;;;19.80;47.66;99658.63;;;;-52
2021/01/01 14:55:06;;;;;;;2.72;1.67;;;;;;;19.85;47.69;99666.88;;;;-53
2021/01/01 14:58:06;;;;;;;1.99;1.60;;;;;;;19.86;47.67;99667.04;;;;-54
2021/01/01 15:01:06;;;;;;;3.25;1.57;;;;;;;19.89;47.73;99666.52;;;;-47
2021/01/01 15:04:06;;;;;;;1.86;1.71;;;;;;;19.91;47.75;99661.29;;;;-45
2021/01/01 15:07:06;;;;;;;6.76;1.73;;;;;;;19.92;47.79;99666.34;;;;-47
2021/01/01 15:10:06;;;;;;;1.61;1.50;;;;;;;19.93;47.88;99667.14;;;;-47
2021/01/01 15:13:06;;;;;;;3.40;1.63;;;;;;;19.95;47.79;99667.36;;;;-53
2021/01/01 15:16:06;;;;;;;1.58;1.38;;;;;;;19.98;47.81;99672.13;;;;-52
2021/01/01 15:19:06;;;;;;;2.87;1.58;;;;;;;19.99;47.86;99670.98;;;;-51
2021/01/01 15:22:06;;;;;;;1.70;1.58;;;;;;;20.02;47.77;99679.27;;;;-57
2021/01/01 15:25:06;;;;;;;1.80;1.66;;;;;;;20.03;47.83;99680.32;;;;-53
2021/01/01 15:28:06;;;;;;;2.22;1.59;;;;;;;20.04;47.89;99678.99;;;;-53
2021/01/01 15:31:06;;;;;;;1.55;1.43;;;;;;;20.03;47.72;99678.94;;;;-58
2021/01/01 15:34:07;;;;;;;5.26;1.50;;;;;;;20.00;47.92;99682.28;;;;-52
2021/01/01 15:37:06;;;;;;;4.44;1.89;;;;;;;19.94;46.92;99685.35;;;;-51
2021/01/01 15:40:06;;;;;;;4.91;1.91;;;;;;;19.96;47.29;99688.01;;;;-56
2021/01/01 15:43:06;;;;;;;3.79;1.81;;;;;;;19.97;47.27;99687.35;;;;-55
2021/01/01 15:46:07;;;;;;;2.33;1.78;;;;;;;20.03;47.32;99688.54;;;;-60
2021/01/01 15:49:06;;;;;;;1.93;1.73;;;;;;;20.02;47.39;99691.86;;;;-58
2021/01/01 15:52:06;;;;;;;2.63;1.93;;;;;;;20.05;47.53;99698.84;;;;-51
2021/01/01 15:55:06;;;;;;;2.27;1.60;;;;;;;20.06;47.52;99703.69;;;;-51
2021/01/01 15:58:06;;;;;;;2.92;1.85;;;;;;;20.08;47.58;99705.89;;;;-51
2021/01/01 16:01:06;;;;;;;2.01;1.81;;;;;;;20.07;47.52;99707.44;;;;-54
2021/01/01 16:04:06;;;;;;;2.56;1.73;;;;;;;20.10;47.64;99707.50;;;;-54
2021/01/01 16:07:12;;;;;;;2.20;1.80;;;;;;;20.13;47.55;99705.99;;;;-45
2021/01/01 16:10:06;;;;;;;1.70;1.60;;;;;;;20.13;47.66;99703.41;;;;-49
2021/01/01 16:13:06;;;;;;;1.78;1.63;;;;;;;20.13;47.69;99699.99;;;;-53
2021/01/01 16:16:06;;;;;;;2.01;1.70;;;;;;;20.16;47.65;99706.39;;;;-51
2021/01/01 16:19:07;;;;;;;2.40;1.69;;;;;;;20.13;47.34;99705.92;;;;-51
2021/01/01 16:22:06;;;;;;;2.12;1.61;;;;;;;20.12;47.29;99710.41;;;;-51
2021/01/01 16:25:06;;;;;;;3.31;1.71;;;;;;;20.09;47.22;99716.30;;;;-56
2021/01/01 16:28:06;;;;;;;1.85;1.75;;;;;;;20.08;47.13;99722.22;;;;-56
2021/01/01 16:31:06;;;;;;;2.51;1.80;;;;;;;20.06;47.11;99724.02;;;;-56
2021/01/01 16:34:06;;;;;;;1.70;1.60;;;;;;;20.05;47.08;99729.25;;;;-56
2021/01/01 16:37:06;;;;;;;1.88;1.74;;;;;;;20.05;47.04;99728.92;;;;-56
2021/01/01 16:40:06;;;;;;;1.93;1.73;;;;;;;20.05;46.97;99732.18;;;;-51
2021/01/01 16:43:06;;;;;;;1.88;1.78;;;;;;;20.06;46.95;99734.69;;;;-51
2021/01/01 16:46:08;;;;;;;1.87;1.69;;;;;;;20.05;46.96;99732.68;;;;-50
2021/01/01 16:49:06;;;;;;;1.77;1.67;;;;;;;20.04;46.94;99732.67;;;;-51
2021/01/01 16:52:06;;;;;;;2.44;1.75;;;;;;;20.03;46.94;99733.17;;;;-51
2021/01/01 16:55:06;;;;;;;1.95;1.81;;;;;;;20.04;46.93;99735.60;;;;-51
2021/01/01 16:58:06;;;;;;;1.90;1.69;;;;;;;20.03;46.92;99733.75;;;;-51
2021/01/01 17:01:06;;;;;;;2.30;1.83;;;;;;;20.03;47.03;99737.02;;;;-49
2021/01/01 17:04:06;;;;;;;1.92;1.76;;;;;;;20.06;47.25;99742.16;;;;-53
2021/01/01 17:07:06;;;;;;;1.82;1.72;;;;;;;20.08;47.36;99744.11;;;;-58
2021/01/01 17:10:06;;;;;;;1.93;1.69;;;;;;;20.11;47.43;99747.09;;;;-55
2021/01/01 17:13:06;;;;;;;2.09;1.80;;;;;;;20.14;47.41;99750.58;;;;-54
2021/01/01 17:16:06;;;;;;;1.73;1.62;;;;;;;20.13;47.49;99747.97;;;;-55
2021/01/01 17:19:08;;;;;;;1.73;1.63;;;;;;;20.16;47.72;99754.14;;;;-60
2021/01/01 17:22:06;;;;;;;1.75;1.58;;;;;;;20.16;47.60;99754.22;;;;-57
2021/01/01 17:25:06;;;;;;;2.85;1.71;;;;;;;20.16;47.65;99753.56;;;;-61
2021/01/01 17:28:06;;;;;;;3.64;1.70;;;;;;;20.16;47.67;99754.05;;;;-57
2021/01/01 17:31:06;;;;;;;1.77;1.57;;;;;;;20.16;47.62;99757.70;;;;-54
2021/01/01 17:34:07;;;;;;;1.74;1.64;;;;;;;20.16;47.58;99750.97;;;;-54
2021/01/01 17:37:06;;;;;;;2.13;1.71;;;;;;;20.16;47.75;99756.66;;;;-56
2021/01/01 17:40:06;;;;;;;1.76;1.66;;;;;;;20.16;47.67;99760.15;;;;-56
2021/01/01 17:43:06;;;;;;;2.43;1.71;;;;;;;20.17;47.36;99766.56;;;;-56
2021/01/01 17:46:06;;;;;;;2.28;1.70;;;;;;;20.16;47.36;99767.08;;;;-56
2021/01/01 17:49:06;;;;;;;1.73;1.63;;;;;;;20.14;47.27;99772.78;;;;-57
2021/01/01 17:52:06;;;;;;;2.60;1.60;;;;;;;20.14;47.13;99777.75;;;;-58
2021/01/01 17:55:06;;;;;;;1.77;1.67;;;;;;;20.13;47.12;99782.64;;;;-59
2021/01/01 17:58:06;;;;;;;1.81;1.71;;;;;;;20.13;47.08;99788.01;;;;-57
2021/01/01 18:01:06;;;;;;;2.01;1.70;;;;;;;20.12;47.07;99789.55;;;;-57